CheckWX is a tool to help pilots better visualize weather data.  It is not intended as a substitute for an official pre-flight weather briefing.

19:02:53 UTC

SLMG METAR
Magdalena Airport
Magdalena, Bolivia
Current

1 hour ago

SLMG 191800Z 34004KT 9999 SCT017 32/20 Q1016
Observed
Jun-19 @ 18:00 UTC
Wind
  • 340° at 4 KTS
Visibility
10,000+ meters
Flight Rules
VFR
Cloud Levels
  • Scattered at 1,700' AGL
Temperature
32°C / 90°F
Dewpoint
20°C / 68°F
Heat Index
34°C / 94°F
Humidity
49%
Altimeter
30" Hg
Pressure
1015.92 hPa
Previous

2 hours ago

SLMG 191700Z 09006KT 9999 SCT017 32/22 Q1016
Observed
Jun-19 @ 17:00 UTC
Wind
  • 090° at 6 KTS
Visibility
10,000+ meters
Flight Rules
VFR
Cloud Levels
  • Scattered at 1,700' AGL
Temperature
32°C / 90°F
Dewpoint
22°C / 72°F
Heat Index
36°C / 97°F
Humidity
55%
Altimeter
30" Hg
Pressure
1015.92 hPa
Previous

3 hours ago

SLMG 191600Z 03004KT 9999 SCT017 BKN200 31/21 Q1016
Observed
Jun-19 @ 16:00 UTC
Wind
  • 030° at 4 KTS
Visibility
10,000+ meters
Flight Rules
VFR
Cloud Levels
  • Scattered at 1,700' AGL
  • Broken at 20,000' AGL
Temperature
31°C / 88°F
Dewpoint
21°C / 70°F
Heat Index
34°C / 93°F
Humidity
55%
Altimeter
30" Hg
Pressure
1015.92 hPa